หน้าหลัก
METAR-TAF:

METAR-TAF

ท่าอากาศยาน :

Middleton Island, อะแลสกา, สหรัฐอเมริกา

ละติจูด: 59-26N, ลองจิจูด: 146-18W, ความสูง: 27 ม.

การสังเกตสภาพอากาศปัจจุบัน

รายงานได้ทำขึ้นเมื่อ 14 นาทีที่แล้ว ณ เวลา 23:29 UTC
ลม 11 นอตจากตะวันออกเฉียงใต้
อุณหภูมิ 7°C
ความชื้น 100%
ความกดอากาศ 1006 hPa
ทัศนวิสัย: 1.2 กม.
มีเมฆมาก มืดครึ้มที่ความสูง 300 ฟุต
ฝนตกเล็กน้อย, หมอกน้ำค้าง

METAR: PAMD 242329Z AUTO 13011KT 3/4SM -RA BR OVC003 07/07 A2971 RMK AO2 VIS 1/2V2 1/2 P0000

เวลา: 15:43 (23:43 UTC)


TAF: หายไป

สังเกตการณ์สภาพอากาศและพยากรณ์อากาศของสนามบินมากกว่า 4000 แห่ง (รายงาน METAR และ TAF).

สถานีที่ดูได้จะแสดงไว้ด้วยจุดสีเหลืองและสีแดงบนแผนที่.

เลื่อนเมาส์ไปเหนือจุดเพื่อดูชื่อสถานี.

แล้วคลิกเพื่อดูสังเกตการณ์และการพยากรณ์สภาพอากาศ.

ในการเปลี่ยนแผนที่: คลิกที่ปุ่มสีเขียวที่มีกากบาทสีดำเพื่อซูมเข้า; ที่ปุ่มสีเขียวที่มีขีดเพื่อซูมออก; หรือที่ลูกศรสีเขียวเพื่อไปยังแผนที่ที่อยู่ติดกัน.


METAR-TAF: